Tecumseh — WTW9257 — position and weather

sailwx.info

Track history (hours):
 
Tides and Currents Weather Stations Pressure Air Temp Water Temp Dewpoint Dewpoint Depression Visibility Wind Speed Wind Dir Waves Ship Positions

Tecumseh

Owner: Sause Bros. Inc., COOS BAY, OR. More information available from US FCC via Universal Licensing System and Coast Guard Vessel Documentation Center.

Last reported at 2016-Sep-19 07:17 UTC. Time now 2016-Sep-30 13:30 UTC.
Position N 44°47' W 124°28'.
Warning: this ship's position is 11 days out of date.

Length 90 m; draft 4.8 m.

Type: Tow > 200 m length. MMSI: 367133160.

Date/timePositionNaut miles runAvg speedWind from/ knotsBaromVisibWave heightAir tempDewpointWater temp
2016-Sep-19 07:17N 44°47' W 124°28'11 9.4
2016-Sep-19 06:07N 44°57' W 124°27'24 9.2
2016-Sep-19 03:33N 45°21' W 124°25'9 9.4
2016-Sep-19 02:34N 45°30' W 124°24'18 9.0
2016-Sep-19 00:34N 45°48' W 124°22'30 6.0
2016-Sep-18 19:34N 46°12' W 123°56'21 5.2
2016-Sep-18 15:33N 46°11' W 123°25'1111.5
2016-Sep-18 14:34N 46°11' W 123°09'38 9.5
2016-Sep-18 10:33N 45°36' W 122°47'5 4.6
2016-Sep-18 09:33N 45°33' W 122°42'0 0.0
2016-Sep-18 02:29N 45°33' W 122°42'0 0.0
2016-Sep-18 01:29N 45°33' W 122°42'0 0.0
2016-Sep-18 00:26N 45°33' W 122°42'0 0.0
2016-Sep-17 22:29N 45°33' W 122°42'0 0.0
2016-Sep-17 21:29N 45°33' W 122°42'0 0.0
2016-Sep-17 20:23N 45°33' W 122°42'0 0.0
2016-Sep-17 19:08N 45°33' W 122°42'0 0.0
2016-Sep-17 13:29N 45°33' W 122°42'0 0.0
2016-Sep-17 12:29N 45°33' W 122°42'0 0.0
2016-Sep-17 10:32N 45°33' W 122°42'0 0.0
2016-Sep-17 09:32N 45°33' W 122°42'0 0.0
2016-Sep-17 08:32N 45°33' W 122°42'0 0.0
2016-Sep-17 07:32N 45°33' W 122°42'0 0.0
2016-Sep-17 05:29N 45°33' W 122°42'0 0.0
2016-Sep-17 04:29N 45°33' W 122°42'0 0.0
2016-Sep-17 00:29N 45°33' W 122°42'0 0.0
2016-Sep-16 17:29N 45°33' W 122°42'0 0.0
2016-Sep-16 15:32N 45°33' W 122°42'0 0.0
2016-Sep-16 12:32N 45°33' W 122°42'0 0.0
2016-Sep-16 09:32N 45°33' W 122°42'0 0.0
2016-Sep-16 07:32N 45°33' W 122°42'0 0.0
2016-Sep-16 03:32N 45°33' W 122°42'0 0.0
2016-Sep-16 02:23N 45°33' W 122°42'0 0.0
2016-Sep-16 00:32N 45°33' W 122°42'0 0.0
2016-Sep-15 22:29N 45°33' W 122°42'0 0.0
2016-Sep-15 21:32N 45°33' W 122°42'0 0.0
2016-Sep-15 20:32N 45°33' W 122°42'0 0.0
2016-Sep-15 18:32N 45°33' W 122°42'0 0.0
2016-Sep-15 12:32N 45°33' W 122°42'0 0.0
2016-Sep-15 11:32N 45°33' W 122°42'0 0.0
2016-Sep-15 04:32N 45°33' W 122°42'0 0.0
2016-Sep-15 03:26N 45°33' W 122°42'0 0.0
2016-Sep-15 01:32N 45°33' W 122°42'0 0.0
2016-Sep-14 22:29N 45°33' W 122°42'0 0.0
2016-Sep-14 21:32N 45°33' W 122°42'0 0.0
2016-Sep-14 17:32N 45°33' W 122°42'0 0.0
2016-Sep-14 16:29N 45°33' W 122°42'0 0.0
2016-Sep-14 13:29N 45°33' W 122°42'0 0.0
2016-Sep-14 12:26N 45°33' W 122°42'0 0.0
2016-Sep-14 10:29N 45°33' W 122°42'0 0.0
2016-Sep-14 09:32N 45°33' W 122°42'0 0.0
2016-Sep-14 08:32N 45°33' W 122°42'0 0.0
2016-Sep-14 07:32N 45°33' W 122°42'1 1.5
2016-Sep-14 06:32N 45°34' W 122°44'0 0.0
2016-Sep-14 03:32N 45°34' W 122°44'2 0.3
2016-Sep-13 22:29N 45°33' W 122°42'0 0.0
2016-Sep-13 20:29N 45°33' W 122°42'0 0.0
2016-Sep-13 18:29N 45°33' W 122°42'0 0.0
2016-Sep-13 17:29N 45°33' W 122°42'0 0.1
2016-Sep-13 16:31N 45°33' W 122°42'0 0.0
2016-Sep-13 11:30N 45°33' W 122°42'0 0.0
2016-Sep-13 09:33N 45°33' W 122°42'0 0.0
2016-Sep-13 07:30N 45°33' W 122°42'0 0.0
2016-Sep-13 06:24N 45°33' W 122°42'0 0.0
2016-Sep-13 04:33N 45°33' W 122°42'0 0.0
2016-Sep-13 02:30N 45°33' W 122°42'0 0.0
2016-Sep-12 23:33N 45°33' W 122°42'0 0.0
2016-Sep-12 21:33N 45°33' W 122°42'0 0.0
2016-Sep-12 19:06N 45°33' W 122°42'0 0.0
2016-Sep-12 17:21N 45°33' W 122°42'0 0.0
2016-Sep-12 14:30N 45°33' W 122°42'0 0.0
2016-Sep-12 13:33N 45°33' W 122°42'0 0.0
2016-Sep-12 12:33N 45°33' W 122°42'0 0.0
2016-Sep-12 11:33N 45°33' W 122°42'0 0.0
2016-Sep-12 10:30N 45°33' W 122°42'0 0.0
2016-Sep-12 07:30N 45°33' W 122°42'0 0.0
2016-Sep-12 06:30N 45°33' W 122°42'0 0.0
2016-Sep-12 03:30N 45°33' W 122°42'0 0.0
2016-Sep-12 01:30N 45°33' W 122°42'0 0.0
2016-Sep-11 23:33N 45°33' W 122°42'0 0.0
2016-Sep-11 22:33N 45°33' W 122°42'0 0.0
2016-Sep-11 21:27N 45°33' W 122°42'0 0.0
2016-Sep-11 20:33N 45°33' W 122°42'0 0.0
2016-Sep-11 19:27N 45°33' W 122°42'5 5.4
2016-Sep-11 18:33N 45°36' W 122°47'8 7.6
2016-Sep-11 17:34N 45°44' W 122°46'9 8.9
2016-Sep-11 16:33N 45°53' W 122°48'9 9.0
2016-Sep-11 15:33N 46°01' W 122°52'6 5.8
2016-Sep-11 14:33N 46°06' W 122°57'0 0.1
2016-Sep-11 13:33N 46°06' W 122°57'6 5.6
2016-Sep-11 12:33N 46°09' W 123°04'6 5.6
2016-Sep-11 11:33N 46°11' W 123°11'6 6.0
2016-Sep-11 10:33N 46°09' W 123°19'10 5.2
2016-Sep-11 08:33N 46°16' W 123°29'6 6.4
2016-Sep-11 07:34N 46°16' W 123°38'21 5.2
2016-Sep-11 03:33N 46°13' W 124°08'6 6.5
2016-Sep-11 02:33N 46°14' W 124°17'10 9.9
2016-Sep-11 01:33N 46°21' W 124°28'10 9.7
2016-Sep-11 00:33N 46°29' W 124°36'1010.0
2016-Sep-10 23:34N 46°39' W 124°40'10 9.7
2016-Sep-10 22:34N 46°48' W 124°45'9 9.4
2016-Sep-10 21:34N 46°57' W 124°49'10 9.8
2016-Sep-10 20:31N 47°06' W 124°54'78 8.7
2016-Sep-10 11:33N 48°25' W 124°58'9 8.8
2016-Sep-10 10:34N 48°27' W 124°46'1010.1
2016-Sep-10 09:34N 48°23' W 124°32'1110.8
2016-Sep-10 08:34N 48°18' W 124°17'20 9.8
2016-Sep-10 06:33N 48°12' W 123°49'9 9.1
2016-Sep-10 05:33N 48°11' W 123°36'8 8.3
2016-Sep-10 04:34N 48°09' W 123°24'2 2.1
2016-Sep-10 03:34N 48°08' W 123°26'0 0.0
2016-Sep-10 02:33N 48°08' W 123°26'6 5.8
2016-Sep-10 01:32N 48°12' W 123°20'10 9.7
2016-Sep-10 00:33N 48°21' W 123°14'1010.3
2016-Sep-09 23:34N 48°31' W 123°12'1010.1
2016-Sep-09 22:32N 48°41' W 123°15'9 8.9
2016-Sep-09 21:34N 48°46' W 123°05'7 7.1
2016-Sep-09 20:33N 48°52' W 123°07'1010.1
2016-Sep-09 19:33N 48°59' W 123°18'9 8.5
2016-Sep-09 18:33N 49°07' W 123°24'9 9.3
2016-Sep-09 17:34N 49°16' W 123°21'9 8.5
2016-Sep-09 16:33N 49°19' W 123°08'2 2.4
2016-Sep-09 15:33N 49°18' W 123°05'0 0.1
2016-Sep-09 14:34N 49°18' W 123°05'0 0.2
2016-Sep-09 13:33N 49°18' W 123°05'2 1.5
2016-Sep-09 12:33N 49°18' W 123°07'6 6.1
2016-Sep-09 11:34N 49°18' W 123°17'7 6.7
2016-Sep-09 10:34N 49°11' W 123°20'6 6.4
2016-Sep-09 09:34N 49°05' W 123°21'7 6.6
2016-Sep-09 08:34N 49°00' W 123°14'6 6.4
2016-Sep-09 07:33N 48°56' W 123°07'  
Track history (hours):
 
Tides and Currents Weather Stations Pressure Air Temp Water Temp Dewpoint Dewpoint Depression Visibility Wind Speed Wind Dir Waves Ship Positions

Tecumseh

Owner: Sause Bros. Inc., COOS BAY, OR. More information available from US FCC via Universal Licensing System and Coast Guard Vessel Documentation Center.

Last reported at 2016-Sep-19 07:17 UTC. Time now 2016-Sep-30 13:30 UTC.
Position N 44°47' W 124°28'.
Warning: this ship's position is 11 days out of date.

Length 90 m; draft 4.8 m.

Type: Tow > 200 m length. MMSI: 367133160.

Date/timePositionNaut miles runAvg speedWind from/ knotsBaromVisibWave heightAir tempDewpointWater temp
2016-Sep-19 07:17N 44°47' W 124°28'11 9.4
2016-Sep-19 06:07N 44°57' W 124°27'24 9.2
2016-Sep-19 03:33N 45°21' W 124°25'9 9.4
2016-Sep-19 02:34N 45°30' W 124°24'18 9.0
2016-Sep-19 00:34N 45°48' W 124°22'30 6.0
2016-Sep-18 19:34N 46°12' W 123°56'21 5.2
2016-Sep-18 15:33N 46°11' W 123°25'1111.5
2016-Sep-18 14:34N 46°11' W 123°09'38 9.5
2016-Sep-18 10:33N 45°36' W 122°47'5 4.6
2016-Sep-18 09:33N 45°33' W 122°42'0 0.0
2016-Sep-18 02:29N 45°33' W 122°42'0 0.0
2016-Sep-18 01:29N 45°33' W 122°42'0 0.0
2016-Sep-18 00:26N 45°33' W 122°42'0 0.0
2016-Sep-17 22:29N 45°33' W 122°42'0 0.0
2016-Sep-17 21:29N 45°33' W 122°42'0 0.0
2016-Sep-17 20:23N 45°33' W 122°42'0 0.0
2016-Sep-17 19:08N 45°33' W 122°42'0 0.0
2016-Sep-17 13:29N 45°33' W 122°42'0 0.0
2016-Sep-17 12:29N 45°33' W 122°42'0 0.0
2016-Sep-17 10:32N 45°33' W 122°42'0 0.0
2016-Sep-17 09:32N 45°33' W 122°42'0 0.0
2016-Sep-17 08:32N 45°33' W 122°42'0 0.0
2016-Sep-17 07:32N 45°33' W 122°42'0 0.0
2016-Sep-17 05:29N 45°33' W 122°42'0 0.0
2016-Sep-17 04:29N 45°33' W 122°42'0 0.0
2016-Sep-17 00:29N 45°33' W 122°42'0 0.0
2016-Sep-16 17:29N 45°33' W 122°42'0 0.0
2016-Sep-16 15:32N 45°33' W 122°42'0 0.0
2016-Sep-16 12:32N 45°33' W 122°42'0 0.0
2016-Sep-16 09:32N 45°33' W 122°42'0 0.0
2016-Sep-16 07:32N 45°33' W 122°42'0 0.0
2016-Sep-16 03:32N 45°33' W 122°42'0 0.0
2016-Sep-16 02:23N 45°33' W 122°42'0 0.0
2016-Sep-16 00:32N 45°33' W 122°42'0 0.0
2016-Sep-15 22:29N 45°33' W 122°42'0 0.0
2016-Sep-15 21:32N 45°33' W 122°42'0 0.0
2016-Sep-15 20:32N 45°33' W 122°42'0 0.0
2016-Sep-15 18:32N 45°33' W 122°42'0 0.0
2016-Sep-15 12:32N 45°33' W 122°42'0 0.0
2016-Sep-15 11:32N 45°33' W 122°42'0 0.0
2016-Sep-15 04:32N 45°33' W 122°42'0 0.0
2016-Sep-15 03:26N 45°33' W 122°42'0 0.0
2016-Sep-15 01:32N 45°33' W 122°42'0 0.0
2016-Sep-14 22:29N 45°33' W 122°42'0 0.0
2016-Sep-14 21:32N 45°33' W 122°42'0 0.0
2016-Sep-14 17:32N 45°33' W 122°42'0 0.0
2016-Sep-14 16:29N 45°33' W 122°42'0 0.0
2016-Sep-14 13:29N 45°33' W 122°42'0 0.0
2016-Sep-14 12:26N 45°33' W 122°42'0 0.0
2016-Sep-14 10:29N 45°33' W 122°42'0 0.0
2016-Sep-14 09:32N 45°33' W 122°42'0 0.0
2016-Sep-14 08:32N 45°33' W 122°42'0 0.0
2016-Sep-14 07:32N 45°33' W 122°42'1 1.5
2016-Sep-14 06:32N 45°34' W 122°44'0 0.0
2016-Sep-14 03:32N 45°34' W 122°44'2 0.3
2016-Sep-13 22:29N 45°33' W 122°42'0 0.0
2016-Sep-13 20:29N 45°33' W 122°42'0 0.0
2016-Sep-13 18:29N 45°33' W 122°42'0 0.0
2016-Sep-13 17:29N 45°33' W 122°42'0 0.1
2016-Sep-13 16:31N 45°33' W 122°42'0 0.0
2016-Sep-13 11:30N 45°33' W 122°42'0 0.0
2016-Sep-13 09:33N 45°33' W 122°42'0 0.0
2016-Sep-13 07:30N 45°33' W 122°42'0 0.0
2016-Sep-13 06:24N 45°33' W 122°42'0 0.0
2016-Sep-13 04:33N 45°33' W 122°42'0 0.0
2016-Sep-13 02:30N 45°33' W 122°42'0 0.0
2016-Sep-12 23:33N 45°33' W 122°42'0 0.0
2016-Sep-12 21:33N 45°33' W 122°42'0 0.0
2016-Sep-12 19:06N 45°33' W 122°42'0 0.0
2016-Sep-12 17:21N 45°33' W 122°42'0 0.0
2016-Sep-12 14:30N 45°33' W 122°42'0 0.0
2016-Sep-12 13:33N 45°33' W 122°42'0 0.0
2016-Sep-12 12:33N 45°33' W 122°42'0 0.0
2016-Sep-12 11:33N 45°33' W 122°42'0 0.0
2016-Sep-12 10:30N 45°33' W 122°42'0 0.0
2016-Sep-12 07:30N 45°33' W 122°42'0 0.0
2016-Sep-12 06:30N 45°33' W 122°42'0 0.0
2016-Sep-12 03:30N 45°33' W 122°42'0 0.0
2016-Sep-12 01:30N 45°33' W 122°42'0 0.0
2016-Sep-11 23:33N 45°33' W 122°42'0 0.0
2016-Sep-11 22:33N 45°33' W 122°42'0 0.0
2016-Sep-11 21:27N 45°33' W 122°42'0 0.0
2016-Sep-11 20:33N 45°33' W 122°42'0 0.0
2016-Sep-11 19:27N 45°33' W 122°42'5 5.4
2016-Sep-11 18:33N 45°36' W 122°47'8 7.6
2016-Sep-11 17:34N 45°44' W 122°46'9 8.9
2016-Sep-11 16:33N 45°53' W 122°48'9 9.0
2016-Sep-11 15:33N 46°01' W 122°52'6 5.8
2016-Sep-11 14:33N 46°06' W 122°57'0 0.1
2016-Sep-11 13:33N 46°06' W 122°57'6 5.6
2016-Sep-11 12:33N 46°09' W 123°04'6 5.6
2016-Sep-11 11:33N 46°11' W 123°11'6 6.0
2016-Sep-11 10:33N 46°09' W 123°19'10 5.2
2016-Sep-11 08:33N 46°16' W 123°29'6 6.4
2016-Sep-11 07:34N 46°16' W 123°38'21 5.2
2016-Sep-11 03:33N 46°13' W 124°08'6 6.5
2016-Sep-11 02:33N 46°14' W 124°17'10 9.9
2016-Sep-11 01:33N 46°21' W 124°28'10 9.7
2016-Sep-11 00:33N 46°29' W 124°36'1010.0
2016-Sep-10 23:34N 46°39' W 124°40'10 9.7
2016-Sep-10 22:34N 46°48' W 124°45'9 9.4
2016-Sep-10 21:34N 46°57' W 124°49'10 9.8
2016-Sep-10 20:31N 47°06' W 124°54'78 8.7
2016-Sep-10 11:33N 48°25' W 124°58'9 8.8
2016-Sep-10 10:34N 48°27' W 124°46'1010.1
2016-Sep-10 09:34N 48°23' W 124°32'1110.8
2016-Sep-10 08:34N 48°18' W 124°17'20 9.8
2016-Sep-10 06:33N 48°12' W 123°49'9 9.1
2016-Sep-10 05:33N 48°11' W 123°36'8 8.3
2016-Sep-10 04:34N 48°09' W 123°24'2 2.1
2016-Sep-10 03:34N 48°08' W 123°26'0 0.0
2016-Sep-10 02:33N 48°08' W 123°26'6 5.8
2016-Sep-10 01:32N 48°12' W 123°20'10 9.7
2016-Sep-10 00:33N 48°21' W 123°14'1010.3
2016-Sep-09 23:34N 48°31' W 123°12'1010.1
2016-Sep-09 22:32N 48°41' W 123°15'9 8.9
2016-Sep-09 21:34N 48°46' W 123°05'7 7.1
2016-Sep-09 20:33N 48°52' W 123°07'1010.1
2016-Sep-09 19:33N 48°59' W 123°18'9 8.5
2016-Sep-09 18:33N 49°07' W 123°24'9 9.3
2016-Sep-09 17:34N 49°16' W 123°21'9 8.5
2016-Sep-09 16:33N 49°19' W 123°08'2 2.4
2016-Sep-09 15:33N 49°18' W 123°05'0 0.1
2016-Sep-09 14:34N 49°18' W 123°05'0 0.2
2016-Sep-09 13:33N 49°18' W 123°05'2 1.5
2016-Sep-09 12:33N 49°18' W 123°07'6 6.1
2016-Sep-09 11:34N 49°18' W 123°17'7 6.7
2016-Sep-09 10:34N 49°11' W 123°20'6 6.4
2016-Sep-09 09:34N 49°05' W 123°21'7 6.6
2016-Sep-09 08:34N 49°00' W 123°14'6 6.4
2016-Sep-09 07:33N 48°56' W 123°07'  

Dump ship's entire track history